| time (UTC) | temp F | wind direction | speed MPH | gust MPH | rain 1hr in | rain 24hr in | rain mn in | humidity % | barometer mb |
| 20260903195047 | 84 | 22 | 0.0 | 2.0 | 0.00 | 0.73 | 0.36 | 87 | 1014.6 |
| 20260903194555 | 84 | 120 | 0.0 | 0.0 | 0.00 | 0.73 | 0.36 | 88 | 1014.6 |
| 20260903194046 | 84 | 120 | 0.0 | 0.0 | 0.00 | 0.73 | 0.36 | 87 | 1014.8 |
| 20260903193549 | 84 | 120 | 0.0 | 0.0 | 0.00 | 0.73 | 0.36 | 88 | 1014.8 |
| 20260903193047 | 84 | 120 | 0.0 | 4.0 | 0.00 | 0.73 | 0.36 | 87 | 1014.7 |
| 20260903192549 | 84 | 120 | 1.0 | 4.0 | 0.00 | 0.73 | 0.36 | 88 | 1014.7 |
| 20260903192046 | 84 | 24 | 0.0 | 3.0 | 0.00 | 0.73 | 0.36 | 89 | 1014.7 |
| 20260903191544 | 84 | 26 | 0.0 | 3.0 | 0.00 | 0.73 | 0.36 | 89 | 1014.8 |
| 20260903191044 | 84 | 63 | 0.0 | 3.0 | 0.00 | 0.73 | 0.36 | 89 | 1015.0 |
| 20260903190546 | 84 | 25 | 0.0 | 3.0 | 0.00 | 0.73 | 0.36 | 90 | 1014.8 |
| 20260903190041 | 83 | 127 | 0.0 | 4.0 | 0.00 | 0.73 | 0.36 | 90 | 1014.9 |
| 20260903185539 | 83 | 127 | 2.0 | 4.0 | 0.00 | 0.73 | 0.36 | 89 | 1015.1 |
| 20260903185038 | 83 | 56 | 0.0 | 1.0 | 0.00 | 0.73 | 0.36 | 90 | 1015.2 |
| 20260903184536 | 83 | 57 | 0.0 | 3.0 | 0.00 | 0.73 | 0.36 | 90 | 1015.2 |
| 20260903184036 | 82 | 30 | 0.0 | 2.0 | 0.00 | 0.73 | 0.36 | 90 | 1015.0 |
| 20260903183534 | 82 | 78 | 0.0 | 3.0 | 0.00 | 0.73 | 0.36 | 90 | 1015.1 |
| 20260903183041 | 81 | 58 | 0.0 | 3.0 | 0.00 | 0.73 | 0.36 | 91 | 1015.3 |
| 20260903182535 | 81 | 76 | 0.0 | 0.0 | 0.00 | 0.73 | 0.36 | 91 | 1015.3 |
| 20260903182036 | 81 | 73 | 0.0 | 3.0 | 0.00 | 0.73 | 0.36 | 91 | 1015.3 |
| 20260903181535 | 81 | 50 | 0.0 | 3.0 | 0.00 | 0.73 | 0.36 | 92 | 1015.5 |
| 20260903181033 | 81 | 45 | 0.0 | 0.0 | 0.00 | 0.73 | 0.36 | 92 | 1015.6 |
| 20260903180534 | 80 | 46 | 0.0 | 4.0 | 0.00 | 0.73 | 0.36 | 93 | 1015.6 |
| 20260903180032 | 80 | 26 | 1.0 | 4.0 | 0.00 | 0.73 | 0.36 | 93 | 1015.6 |
| 20260903175534 | 80 | 28 | 0.0 | 2.0 | 0.00 | 0.73 | 0.36 | 94 | 1015.7 |
| 20260903175032 | 80 | 61 | 0.0 | 2.0 | 0.00 | 0.73 | 0.36 | 94 | 1015.7 |
| 20260903174532 | 79 | 51 | 0.0 | 0.0 | 0.01 | 0.73 | 0.36 | 95 | 1015.8 |
| 20260903174033 | 79 | 126 | 0.0 | 0.0 | 0.01 | 0.73 | 0.36 | 94 | 1015.7 |
| 20260903173533 | 79 | 126 | 0.0 | 0.0 | 0.02 | 0.73 | 0.36 | 95 | 1015.8 |
| 20260903173032 | 79 | 126 | 0.0 | 0.0 | 0.02 | 0.73 | 0.36 | 95 | 1015.8 |
| 20260903172532 | 78 | 127 | 0.0 | 0.0 | 0.02 | 0.73 | 0.36 | 95 | 1015.9 |
| 20260903172032 | 78 | 127 | 0.0 | 0.0 | 0.02 | 0.73 | 0.36 | 94 | 1016.0 |
| 20260903171545 | 77 | 127 | 0.0 | 0.0 | 0.05 | 0.73 | 0.36 | 94 | 1016.1 |
| 20260903171031 | 77 | 127 | 0.0 | 0.0 | 0.08 | 0.73 | 0.36 | 94 | 1016.2 |
| 20260903170531 | 77 | 127 | 0.0 | 0.0 | 0.08 | 0.73 | 0.36 | 94 | 1016.3 |
| 20260903170031 | 77 | 127 | 0.0 | 0.0 | 0.09 | 0.73 | 0.36 | 94 | 1016.4 |
| 20260903165530 | 77 | 127 | 0.0 | 0.0 | 0.11 | 0.73 | 0.36 | 94 | 1016.6 |
| 20260903165029 | 77 | 127 | 0.0 | 0.0 | 0.11 | 0.73 | 0.36 | 94 | 1016.7 |
| 20260903164532 | 77 | 127 | 0.0 | 0.0 | 0.10 | 0.72 | 0.35 | 94 | 1016.7 |
| 20260903164130 | 77 | 127 | 0.0 | 2.0 | 0.10 | 0.72 | 0.35 | 94 | 1016.9 |
| 20260903163530 | 76 | 127 | 0.0 | 2.0 | 0.09 | 0.71 | 0.34 | 94 | 1017.0 |
| 20260903163028 | 76 | 126 | 0.0 | 2.0 | 0.09 | 0.71 | 0.34 | 94 | 1017.1 |
| 20260903162528 | 77 | 126 | 0.0 | 4.0 | 0.10 | 0.71 | 0.34 | 93 | 1017.0 |
| 20260903162029 | 77 | 126 | 1.0 | 4.0 | 0.10 | 0.71 | 0.34 | 93 | 1016.9 |
| 20260903161529 | 77 | 121 | 1.0 | 7.0 | 0.06 | 0.67 | 0.30 | 93 | 1016.9 |
| 20260903161028 | 77 | 121 | 3.0 | 7.0 | 0.06 | 0.65 | 0.28 | 93 | 1016.9 |
| 20260903160530 | 77 | 119 | 0.0 | 8.0 | 0.12 | 0.65 | 0.28 | 93 | 1016.8 |
| 20260903160032 | 78 | 113 | 1.0 | 8.0 | 0.13 | 0.64 | 0.27 | 93 | 1016.9 |
| 20260903155531 | 78 | 121 | 1.0 | 8.0 | 0.15 | 0.62 | 0.25 | 93 | 1017.0 |
| 20260903155026 | 78 | 138 | 0.0 | 0.0 | 0.23 | 0.62 | 0.25 | 93 | 1017.0 |
| 20260903154533 | 78 | 138 | 0.0 | 0.0 | 0.23 | 0.62 | 0.25 | 93 | 1017.1 |
| 20260903154029 | 78 | 138 | 0.0 | 0.0 | 0.23 | 0.62 | 0.25 | 93 | 1016.8 |
| 20260903153525 | 78 | 138 | 0.0 | 0.0 | 0.23 | 0.62 | 0.25 | 93 | 1017.0 |
| 20260903153027 | 78 | 149 | 0.0 | 0.0 | 0.24 | 0.62 | 0.25 | 93 | 1016.8 |
| 20260903152524 | 78 | 205 | 0.0 | 0.0 | 0.23 | 0.61 | 0.24 | 93 | 1016.6 |
| 20260903152027 | 78 | 210 | 0.0 | 3.0 | 0.23 | 0.61 | 0.24 | 93 | 1016.5 |
| 20260903151523 | 78 | 210 | 1.0 | 4.0 | 0.23 | 0.61 | 0.24 | 93 | 1016.5 |
| 20260903151025 | 79 | 126 | 1.0 | 4.0 | 0.21 | 0.59 | 0.22 | 92 | 1016.7 |
| 20260903150525 | 79 | 124 | 1.0 | 3.0 | 0.15 | 0.53 | 0.16 | 92 | 1016.8 |
| 20260903150026 | 80 | 118 | 0.0 | 8.0 | 0.13 | 0.51 | 0.14 | 92 | 1016.5 |
| 20260903145522 | 80 | 116 | 3.0 | 8.0 | 0.09 | 0.47 | 0.10 | 91 | 1016.6 |
| 20260903145022 | 81 | 126 | 0.0 | 2.0 | 0.01 | 0.39 | 0.02 | 91 | 1016.4 |
| 20260903144538 | 81 | 40 | 0.0 | 0.0 | 0.01 | 0.39 | 0.02 | 91 | 1016.3 |
| 20260903144018 | 81 | 40 | 0.0 | 0.0 | 0.01 | 0.39 | 0.02 | 91 | 1016.3 |
| 20260903143517 | 81 | 40 | 0.0 | 0.0 | 0.00 | 0.38 | 0.01 | 91 | 1016.3 |
| 20260903143030 | 82 | 40 | 0.0 | 0.0 | 0.00 | 0.38 | 0.01 | 90 | 1016.2 |
| 20260903142517 | 82 | 40 | 0.0 | 0.0 | 0.00 | 0.38 | 0.01 | 91 | 1016.2 |
| 20260903142017 | 82 | 40 | 0.0 | 0.0 | 0.00 | 0.38 | 0.01 | 91 | 1016.1 |
| 20260903141516 | 81 | 51 | 0.0 | 0.0 | 0.00 | 0.38 | 0.01 | 91 | 1016.1 |
| 20260903141020 | 81 | 51 | 0.0 | 2.0 | 0.00 | 0.38 | 0.01 | 91 | 1016.2 |
| 20260903140514 | 81 | 51 | 0.0 | 2.0 | 0.00 | 0.38 | 0.01 | 91 | 1016.1 |
| 20260903140015 | 81 | 98 | 0.0 | 2.0 | 0.00 | 0.38 | 0.01 | 91 | 1016.2 |
| 20260903135510 | 81 | 98 | 0.0 | 2.0 | 0.00 | 0.38 | 0.01 | 92 | 1016.2 |
| 20260903135010 | 81 | 24 | 0.0 | 2.0 | 0.00 | 0.38 | 0.01 | 92 | 1016.3 |
| 20260903134508 | 80 | 22 | 0.0 | 2.0 | 0.00 | 0.38 | 0.01 | 93 | 1016.2 |
| 20260903134008 | 80 | 80 | 0.0 | 1.0 | 0.00 | 0.38 | 0.01 | 94 | 1016.1 |
| 20260903133509 | 80 | 76 | 0.0 | 0.0 | 0.00 | 0.38 | 0.01 | 94 | 1016.2 |
| 20260903133008 | 79 | 76 | 0.0 | 0.0 | 0.00 | 0.38 | 0.01 | 95 | 1016.1 |
| 20260903132504 | 79 | 155 | 0.0 | 0.0 | 0.00 | 0.38 | 0.01 | 95 | 1016.1 |
| 20260903132006 | 79 | 155 | 0.0 | 0.0 | 0.00 | 0.38 | 0.01 | 95 | 1016.1 |
| 20260903131504 | 79 | 156 | 0.0 | 0.0 | 0.00 | 0.38 | 0.01 | 95 | 1016.1 |
| 20260903131003 | 79 | 172 | 0.0 | 0.0 | 0.00 | 0.38 | 0.01 | 95 | 1016.1 |
| 20260903130506 | 79 | 173 | 0.0 | 0.0 | 0.00 | 0.38 | 0.01 | 96 | 1016.1 |
| 20260903130001 | 79 | 174 | 0.0 | 0.0 | 0.00 | 0.38 | 0.01 | 96 | 1015.9 |
| 20260903125601 | 79 | 174 | 0.0 | 0.0 | 0.00 | 0.38 | 0.01 | 96 | 1016.1 |
| 20260903125101 | 79 | 174 | 0.0 | 0.0 | 0.00 | 0.38 | 0.01 | 95 | 1016.1 |
| 20260903124612 | 79 | 174 | 0.0 | 0.0 | 0.00 | 0.38 | 0.01 | 96 | 1016.2 |
| 20260903124058 | 79 | 174 | 0.0 | 0.0 | 0.00 | 0.38 | 0.01 | 96 | 1016.1 |
| 20260903123558 | 78 | 174 | 0.0 | 0.0 | 0.00 | 0.38 | 0.01 | 96 | 1016.1 |
| 20260903123058 | 78 | 174 | 0.0 | 0.0 | 0.00 | 0.38 | 0.01 | 95 | 1016.2 |
| 20260903122557 | 78 | 174 | 0.0 | 0.0 | 0.00 | 0.38 | 0.01 | 95 | 1016.2 |
| 20260903122056 | 78 | 175 | 0.0 | 0.0 | 0.00 | 0.38 | 0.01 | 96 | 1016.2 |
| 20260903121601 | 78 | 175 | 0.0 | 0.0 | 0.00 | 0.38 | 0.01 | 95 | 1016.1 |
| 20260903121054 | 78 | 175 | 0.0 | 0.0 | 0.00 | 0.38 | 0.01 | 95 | 1015.9 |
| 20260903120554 | 77 | 175 | 0.0 | 0.0 | 0.00 | 0.38 | 0.01 | 95 | 1016.0 |
| 20260903120101 | 77 | 175 | 0.0 | 0.0 | 0.00 | 0.38 | 0.01 | 95 | 1015.9 |
| 20260903115554 | 77 | 175 | 0.0 | 0.0 | 0.00 | 0.38 | 0.01 | 95 | 1015.8 |
| 20260903115053 | 77 | 182 | 0.0 | 0.0 | 0.00 | 0.38 | 0.01 | 95 | 1015.7 |
| 20260903114553 | 77 | 183 | 0.0 | 0.0 | 0.00 | 0.38 | 0.01 | 95 | 1015.6 |
| 20260903114052 | 77 | 183 | 0.0 | 0.0 | 0.00 | 0.38 | 0.01 | 95 | 1015.6 |
| 20260903113552 | 77 | 182 | 0.0 | 0.0 | 0.00 | 0.38 | 0.01 | 95 | 1015.5 |
| 20260903113131 | 77 | 182 | 0.0 | 0.0 | 0.00 | 0.38 | 0.01 | 95 | 1015.4 |
| 20260903112555 | 77 | 182 | 0.0 | 0.0 | 0.00 | 0.38 | 0.01 | 95 | 1015.3 |
| 20260903112052 | 77 | 182 | 0.0 | 0.0 | 0.00 | 0.38 | 0.01 | 95 | 1015.2 |
| 20260903111552 | 76 | 183 | 0.0 | 0.0 | 0.00 | 0.38 | 0.01 | 95 | 1015.1 |
| 20260903111051 | 76 | 183 | 0.0 | 0.0 | 0.00 | 0.38 | 0.01 | 95 | 1015.2 |
| 20260903110550 | 76 | 182 | 0.0 | 0.0 | 0.00 | 0.38 | 0.01 | 95 | 1015.0 |
| 20260903110056 | 76 | 182 | 0.0 | 0.0 | 0.00 | 0.38 | 0.01 | 95 | 1015.0 |
| 20260903105552 | 76 | 182 | 0.0 | 0.0 | 0.00 | 0.38 | 0.01 | 95 | 1014.9 |
| 20260903105050 | 76 | 182 | 0.0 | 0.0 | 0.00 | 0.38 | 0.01 | 95 | 1014.8 |
| 20260903104559 | 76 | 182 | 0.0 | 0.0 | 0.00 | 0.38 | 0.01 | 95 | 1014.7 |
| 20260903104048 | 76 | 182 | 0.0 | 0.0 | 0.00 | 0.38 | 0.01 | 95 | 1014.7 |
| 20260903103548 | 76 | 183 | 0.0 | 0.0 | 0.00 | 0.38 | 0.01 | 95 | 1014.7 |
| 20260903103048 | 76 | 182 | 0.0 | 0.0 | 0.00 | 0.38 | 0.01 | 95 | 1014.8 |
| 20260903102550 | 76 | 183 | 0.0 | 0.0 | 0.00 | 0.38 | 0.01 | 95 | 1014.7 |
| 20260903102047 | 76 | 182 | 0.0 | 0.0 | 0.00 | 0.38 | 0.01 | 95 | 1014.7 |
| 20260903101549 | 76 | 182 | 0.0 | 0.0 | 0.00 | 0.38 | 0.01 | 95 | 1014.7 |
| 20260903101046 | 76 | 182 | 0.0 | 0.0 | 0.00 | 0.38 | 0.01 | 95 | 1014.5 |
| 20260903100546 | 76 | 182 | 0.0 | 0.0 | 0.00 | 0.38 | 0.01 | 95 | 1014.4 |
| 20260903100046 | 76 | 183 | 0.0 | 0.0 | 0.00 | 0.38 | 0.01 | 95 | 1014.3 |
| 20260903095545 | 76 | 183 | 0.0 | 0.0 | 0.00 | 0.38 | 0.01 | 95 | 1014.4 |
| 20260903095044 | 76 | 183 | 0.0 | 0.0 | 0.00 | 0.38 | 0.01 | 95 | 1014.4 |
| 20260903094551 | 76 | 182 | 0.0 | 0.0 | 0.00 | 0.38 | 0.01 | 95 | 1014.4 |
| 20260903094044 | 76 | 182 | 0.0 | 0.0 | 0.00 | 0.38 | 0.01 | 95 | 1014.3 |
| 20260903093548 | 76 | 182 | 0.0 | 0.0 | 0.00 | 0.38 | 0.01 | 95 | 1014.3 |
| 20260903093045 | 76 | 183 | 0.0 | 0.0 | 0.00 | 0.38 | 0.01 | 95 | 1014.2 |
| 20260903092544 | 76 | 182 | 0.0 | 0.0 | 0.00 | 0.38 | 0.01 | 95 | 1014.3 |
| 20260903092044 | 76 | 182 | 0.0 | 0.0 | 0.00 | 0.38 | 0.01 | 95 | 1014.3 |
| 20260903091549 | 76 | 182 | 0.0 | 0.0 | 0.00 | 0.38 | 0.01 | 95 | 1014.3 |
| 20260903091044 | 76 | 182 | 0.0 | 0.0 | 0.00 | 0.38 | 0.01 | 95 | 1014.3 |
| 20260903090543 | 76 | 182 | 0.0 | 0.0 | 0.00 | 0.38 | 0.01 | 95 | 1014.3 |
| 20260903090047 | 76 | 182 | 0.0 | 0.0 | 0.00 | 0.38 | 0.01 | 95 | 1014.3 |
| 20260903085542 | 76 | 182 | 0.0 | 0.0 | 0.00 | 0.38 | 0.01 | 95 | 1014.2 |
| 20260903085042 | 76 | 182 | 0.0 | 0.0 | 0.00 | 0.38 | 0.01 | 95 | 1014.3 |
| 20260903084542 | 76 | 182 | 0.0 | 0.0 | 0.00 | 0.38 | 0.01 | 95 | 1014.2 |
| 20260903084043 | 76 | 182 | 0.0 | 0.0 | 0.00 | 0.38 | 0.01 | 95 | 1014.3 |
| 20260903083541 | 76 | 183 | 0.0 | 0.0 | 0.00 | 0.38 | 0.01 | 95 | 1014.4 |
| 20260903083039 | 76 | 183 | 0.0 | 0.0 | 0.00 | 0.38 | 0.01 | 95 | 1014.4 |
| 20260903082539 | 76 | 182 | 0.0 | 0.0 | 0.00 | 0.38 | 0.01 | 95 | 1014.4 |
| 20260903082040 | 76 | 183 | 0.0 | 0.0 | 0.00 | 0.38 | 0.01 | 95 | 1014.5 |
| 20260903081539 | 76 | 183 | 0.0 | 0.0 | 0.00 | 0.38 | 0.01 | 95 | 1014.5 |
| 20260903081039 | 76 | 183 | 0.0 | 0.0 | 0.00 | 0.38 | 0.01 | 95 | 1014.6 |
| 20260903080538 | 76 | 182 | 0.0 | 0.0 | 0.00 | 0.38 | 0.01 | 95 | 1014.6 |
| 20260903080038 | 76 | 182 | 0.0 | 0.0 | 0.00 | 0.38 | 0.01 | 95 | 1014.6 |
| 20260903075538 | 77 | 182 | 0.0 | 0.0 | 0.00 | 0.38 | 0.01 | 95 | 1014.5 |
| 20260903075037 | 77 | 182 | 0.0 | 0.0 | 0.00 | 0.38 | 0.01 | 95 | 1014.6 |
| 20260903074540 | 77 | 183 | 0.0 | 0.0 | 0.00 | 0.38 | 0.01 | 95 | 1014.6 |
| 20260903074037 | 77 | 182 | 0.0 | 0.0 | 0.00 | 0.38 | 0.01 | 95 | 1014.6 |
| 20260903073537 | 77 | 183 | 0.0 | 0.0 | 0.00 | 0.38 | 0.01 | 94 | 1014.6 |
| 20260903073037 | 77 | 182 | 0.0 | 0.0 | 0.00 | 0.38 | 0.01 | 95 | 1014.6 |
| 20260903072535 | 77 | 182 | 0.0 | 0.0 | 0.00 | 0.38 | 0.01 | 95 | 1014.8 |
| 20260903072036 | 77 | 182 | 0.0 | 0.0 | 0.00 | 0.38 | 0.01 | 95 | 1014.8 |
| 20260903071545 | 77 | 182 | 0.0 | 0.0 | 0.00 | 0.38 | 0.01 | 95 | 1014.8 |
| 20260903071037 | 77 | 183 | 0.0 | 0.0 | 0.00 | 0.38 | 0.01 | 95 | 1014.8 |
| 20260903070535 | 77 | 182 | 0.0 | 0.0 | 0.00 | 0.38 | 0.01 | 95 | 1014.8 |
| 20260903070034 | 77 | 183 | 0.0 | 0.0 | 0.00 | 0.38 | 0.01 | 95 | 1014.7 |
| 20260903065536 | 77 | 182 | 0.0 | 0.0 | 0.00 | 0.38 | 0.01 | 95 | 1014.8 |
| 20260903065035 | 77 | 183 | 0.0 | 0.0 | 0.00 | 0.38 | 0.01 | 95 | 1014.8 |
| 20260903064533 | 77 | 183 | 0.0 | 0.0 | 0.00 | 0.38 | 0.01 | 95 | 1014.9 |
| 20260903064033 | 78 | 182 | 0.0 | 0.0 | 0.00 | 0.38 | 0.01 | 95 | 1015.0 |
| 20260903063534 | 78 | 183 | 0.0 | 0.0 | 0.00 | 0.38 | 0.01 | 95 | 1014.9 |
| 20260903063033 | 78 | 182 | 0.0 | 0.0 | 0.00 | 0.38 | 0.01 | 95 | 1015.1 |
| 20260903062531 | 78 | 182 | 0.0 | 0.0 | 0.00 | 0.38 | 0.01 | 95 | 1015.1 |
| 20260903062031 | 78 | 183 | 0.0 | 0.0 | 0.01 | 0.38 | 0.01 | 95 | 1015.2 |
| 20260903061531 | 78 | 183 | 0.0 | 0.0 | 0.01 | 0.38 | 0.01 | 95 | 1015.3 |
| 20260903061034 | 78 | 182 | 0.0 | 0.0 | 0.01 | 0.38 | 0.01 | 95 | 1015.2 |
| 20260903060530 | 78 | 183 | 0.0 | 0.0 | 0.01 | 0.38 | 0.01 | 95 | 1015.2 |
| 20260903060029 | 78 | 183 | 0.0 | 0.0 | 0.01 | 0.38 | 0.01 | 95 | 1015.3 |
| 20260903055529 | 78 | 182 | 0.0 | 0.0 | 0.01 | 0.38 | 0.01 | 95 | 1015.4 |
| 20260903055031 | 78 | 182 | 0.0 | 0.0 | 0.01 | 0.38 | 0.01 | 95 | 1015.5 |
| 20260903054529 | 78 | 183 | 0.0 | 0.0 | 0.01 | 0.38 | 0.01 | 95 | 1015.4 |
| 20260903054027 | 77 | 182 | 0.0 | 0.0 | 0.01 | 0.38 | 0.01 | 95 | 1015.5 |
| 20260903053529 | 77 | 183 | 0.0 | 0.0 | 0.01 | 0.38 | 0.01 | 95 | 1015.4 |
| 20260903053026 | 77 | 183 | 0.0 | 0.0 | 0.01 | 0.38 | 0.01 | 95 | 1015.5 |
| 20260903052527 | 77 | 183 | 0.0 | 0.0 | 0.01 | 0.38 | 0.01 | 94 | 1015.5 |
| 20260903052030 | 77 | 182 | 0.0 | 0.0 | 0.00 | 0.37 | 0.00 | 95 | 1015.6 |
| 20260903051540 | 77 | 183 | 0.0 | 0.0 | 0.00 | 0.37 | 0.00 | 95 | 1015.5 |
| 20260903051032 | 77 | 182 | 0.0 | 0.0 | 0.00 | 0.37 | 0.00 | 95 | 1015.5 |
| 20260903050525 | 77 | 182 | 0.0 | 0.0 | 0.00 | 0.37 | 0.00 | 94 | 1015.5 |
| 20260903050024 | 77 | 182 | 0.0 | 0.0 | 0.00 | 0.37 | 0.00 | 94 | 1015.6 |
| 20260903045525 | 77 | 182 | 0.0 | 0.0 | 0.00 | 0.37 | 0.00 | 94 | 1015.5 |
| 20260903045026 | 77 | 182 | 0.0 | 0.0 | 0.00 | 0.37 | 0.00 | 94 | 1015.7 |
| 20260903044531 | 77 | 183 | 0.0 | 0.0 | 0.00 | 0.37 | 0.00 | 94 | 1015.6 |
| 20260903044024 | 77 | 182 | 0.0 | 0.0 | 0.00 | 0.37 | 0.00 | 94 | 1015.6 |
| 20260903043524 | 77 | 182 | 0.0 | 0.0 | 0.00 | 0.37 | 0.00 | 94 | 1015.6 |
| 20260903043054 | 77 | 183 | 0.0 | 0.0 | 0.00 | 0.37 | 0.00 | 94 | 1015.6 |
| 20260903042523 | 77 | 183 | 0.0 | 0.0 | 0.00 | 0.37 | 0.00 | 94 | 1015.6 |
| 20260903042022 | 77 | 182 | 0.0 | 0.0 | 0.00 | 0.37 | 0.00 | 94 | 1015.7 |
| 20260903041522 | 77 | 183 | 0.0 | 0.0 | 0.00 | 0.37 | 0.00 | 94 | 1015.8 |
| 20260903041020 | 77 | 183 | 0.0 | 0.0 | 0.00 | 0.37 | 0.00 | 94 | 1015.9 |
| 20260903040519 | 77 | 183 | 0.0 | 0.0 | 0.00 | 0.37 | 0.00 | 94 | 1015.8 |
| 20260903040018 | 77 | 182 | 0.0 | 0.0 | 0.00 | 0.37 | 0.00 | 94 | 1015.8 |
| 20260903035517 | 77 | 182 | 0.0 | 0.0 | 0.00 | 0.37 | 0.37 | 94 | 1015.8 |
| 20260903035018 | 77 | 183 | 0.0 | 0.0 | 0.00 | 0.37 | 0.37 | 94 | 1015.9 |
| 20260903034533 | 77 | 183 | 0.0 | 0.0 | 0.00 | 0.37 | 0.37 | 94 | 1016.0 |
| 20260903034018 | 77 | 183 | 0.0 | 0.0 | 0.00 | 0.37 | 0.37 | 94 | 1016.0 |
| 20260903033518 | 77 | 183 | 0.0 | 0.0 | 0.00 | 0.37 | 0.37 | 94 | 1016.0 |
| 20260903033020 | 77 | 183 | 0.0 | 0.0 | 0.00 | 0.37 | 0.37 | 94 | 1016.1 |
| 20260903032517 | 77 | 183 | 0.0 | 0.0 | 0.00 | 0.37 | 0.37 | 94 | 1016.1 |
| 20260903032018 | 77 | 183 | 0.0 | 0.0 | 0.00 | 0.37 | 0.37 | 94 | 1016.3 |
| 20260903031517 | 77 | 183 | 0.0 | 0.0 | 0.00 | 0.37 | 0.37 | 94 | 1016.2 |
| 20260903031016 | 77 | 183 | 0.0 | 0.0 | 0.00 | 0.37 | 0.37 | 94 | 1016.1 |
| 20260903030517 | 77 | 183 | 0.0 | 0.0 | 0.00 | 0.37 | 0.37 | 94 | 1016.1 |
| 20260903030017 | 77 | 183 | 0.0 | 0.0 | 0.00 | 0.37 | 0.37 | 94 | 1016.2 |
| 20260903025517 | 77 | 183 | 0.0 | 0.0 | 0.00 | 0.37 | 0.37 | 94 | 1016.2 |
| 20260903025016 | 77 | 183 | 0.0 | 0.0 | 0.00 | 0.37 | 0.37 | 94 | 1016.3 |
| 20260903024522 | 77 | 183 | 0.0 | 0.0 | 0.00 | 0.37 | 0.37 | 94 | 1016.3 |
| 20260903024016 | 77 | 183 | 0.0 | 0.0 | 0.00 | 0.37 | 0.37 | 94 | 1016.3 |
| 20260903023516 | 77 | 183 | 0.0 | 0.0 | 0.00 | 0.37 | 0.37 | 94 | 1016.4 |
| 20260903023016 | 78 | 183 | 0.0 | 0.0 | 0.00 | 0.37 | 0.37 | 94 | 1016.4 |
| 20260903022515 | 78 | 183 | 0.0 | 0.0 | 0.00 | 0.37 | 0.37 | 94 | 1016.2 |
| 20260903022017 | 78 | 183 | 0.0 | 0.0 | 0.00 | 0.37 | 0.37 | 93 | 1016.4 |
| 20260903021517 | 78 | 183 | 0.0 | 0.0 | 0.00 | 0.37 | 0.37 | 94 | 1016.3 |
| 20260903021016 | 78 | 183 | 0.0 | 0.0 | 0.00 | 0.37 | 0.37 | 94 | 1016.3 |
| 20260903020514 | 78 | 183 | 0.0 | 0.0 | 0.00 | 0.37 | 0.37 | 93 | 1016.2 |
| 20260903020016 | 78 | 183 | 0.0 | 0.0 | 0.00 | 0.37 | 0.37 | 93 | 1016.3 |
| 20260903015514 | 78 | 183 | 0.0 | 0.0 | 0.00 | 0.37 | 0.37 | 93 | 1016.3 |
| 20260903015013 | 78 | 183 | 0.0 | 0.0 | 0.00 | 0.37 | 0.37 | 93 | 1016.4 |
| 20260903014518 | 78 | 183 | 0.0 | 0.0 | 0.00 | 0.37 | 0.37 | 93 | 1016.2 |
| 20260903014017 | 78 | 183 | 0.0 | 0.0 | 0.00 | 0.37 | 0.37 | 93 | 1016.2 |
| 20260903013516 | 78 | 183 | 0.0 | 0.0 | 0.00 | 0.37 | 0.37 | 93 | 1016.2 |
| 20260903013013 | 78 | 183 | 0.0 | 0.0 | 0.00 | 0.37 | 0.37 | 93 | 1016.1 |
| 20260903012511 | 78 | 182 | 0.0 | 0.0 | 0.00 | 0.37 | 0.37 | 93 | 1016.1 |
| 20260903012012 | 78 | 183 | 0.0 | 0.0 | 0.00 | 0.37 | 0.37 | 93 | 1016.2 |
| 20260903011516 | 78 | 183 | 0.0 | 0.0 | 0.00 | 0.37 | 0.37 | 93 | 1016.2 |
| 20260903011011 | 78 | 183 | 0.0 | 0.0 | 0.00 | 0.37 | 0.37 | 93 | 1016.1 |
| 20260903010511 | 78 | 183 | 0.0 | 0.0 | 0.00 | 0.37 | 0.37 | 93 | 1016.2 |
| 20260903010013 | 78 | 183 | 0.0 | 0.0 | 0.00 | 0.37 | 0.37 | 93 | 1016.2 |
| 20260903005511 | 78 | 183 | 0.0 | 0.0 | 0.00 | 0.37 | 0.37 | 93 | 1015.9 |
| 20260903005011 | 78 | 183 | 0.0 | 0.0 | 0.00 | 0.37 | 0.37 | 93 | 1015.8 |
| 20260903004511 | 78 | 183 | 0.0 | 0.0 | 0.00 | 0.37 | 0.37 | 92 | 1015.8 |
| 20260903004011 | 78 | 183 | 0.0 | 0.0 | 0.00 | 0.37 | 0.37 | 92 | 1015.7 |
| 20260903003510 | 78 | 182 | 0.0 | 0.0 | 0.00 | 0.37 | 0.37 | 93 | 1015.7 |
| 20260903003011 | 79 | 183 | 0.0 | 0.0 | 0.00 | 0.37 | 0.37 | 93 | 1015.7 |
| 20260903002511 | 79 | 182 | 0.0 | 0.0 | 0.00 | 0.37 | 0.37 | 93 | 1015.6 |
| 20260903002009 | 79 | 183 | 0.0 | 0.0 | 0.00 | 0.37 | 0.37 | 93 | 1015.8 |
| 20260903001509 | 79 | 183 | 0.0 | 0.0 | 0.00 | 0.37 | 0.37 | 93 | 1015.8 |
| 20260903001009 | 79 | 183 | 0.0 | 0.0 | 0.00 | 0.37 | 0.37 | 93 | 1015.9 |
| 20260903000508 | 79 | 183 | 0.0 | 0.0 | 0.00 | 0.37 | 0.37 | 93 | 1015.8 |
| 20260903000008 | 79 | 182 | 0.0 | 0.0 | 0.00 | 0.37 | 0.37 | 93 | 1015.8 |
| 20260902235509 | 79 | 183 | 0.0 | 0.0 | 0.00 | 0.37 | 0.37 | 93 | 1015.8 |
| 20260902235011 | 79 | 182 | 0.0 | 0.0 | 0.00 | 0.37 | 0.37 | 92 | 1015.8 |
| 20260902234510 | 79 | 182 | 0.0 | 0.0 | 0.00 | 0.37 | 0.37 | 92 | 1015.7 |
| 20260902234007 | 79 | 183 | 0.0 | 0.0 | 0.00 | 0.37 | 0.37 | 92 | 1015.7 |
| 20260902233508 | 79 | 183 | 0.0 | 0.0 | 0.00 | 0.37 | 0.37 | 92 | 1015.6 |
| 20260902233007 | 79 | 236 | 0.0 | 0.0 | 0.00 | 0.37 | 0.37 | 92 | 1015.6 |
| 20260902232510 | 79 | 236 | 0.0 | 0.0 | 0.00 | 0.37 | 0.37 | 92 | 1015.7 |
| 20260902232006 | 79 | 236 | 0.0 | 0.0 | 0.00 | 0.37 | 0.37 | 92 | 1015.7 |
| 20260902231507 | 79 | 236 | 0.0 | 0.0 | 0.00 | 0.37 | 0.37 | 92 | 1015.6 |
| 20260902231007 | 79 | 266 | 0.0 | 0.0 | 0.00 | 0.37 | 0.37 | 92 | 1015.6 |
| 20260902230506 | 79 | 266 | 0.0 | 0.0 | 0.00 | 0.37 | 0.37 | 92 | 1015.5 |
| 20260902230005 | 79 | 266 | 0.0 | 0.0 | 0.00 | 0.37 | 0.37 | 92 | 1015.6 |
| 20260902225506 | 79 | 266 | 0.0 | 0.0 | 0.00 | 0.37 | 0.37 | 92 | 1015.7 |
| 20260902225006 | 79 | 266 | 0.0 | 0.0 | 0.00 | 0.37 | 0.37 | 93 | 1015.7 |
| 20260902224506 | 79 | 266 | 0.0 | 0.0 | 0.04 | 0.37 | 0.37 | 93 | 1015.6 |
| 20260902224008 | 79 | 265 | 0.0 | 1.0 | 0.04 | 0.37 | 0.37 | 93 | 1015.6 |
| 20260902223509 | 79 | 265 | 0.0 | 1.0 | 0.04 | 0.37 | 0.37 | 93 | 1015.6 |
| 20260902223018 | 79 | 265 | 0.0 | 1.0 | 0.04 | 0.37 | 0.37 | 93 | 1015.7 |
| 20260902222505 | 80 | 265 | 0.0 | 0.0 | 0.04 | 0.37 | 0.37 | 93 | 1015.8 |
| 20260902222006 | 80 | 24 | 0.0 | 0.0 | 0.04 | 0.37 | 0.37 | 93 | 1015.8 |
| 20260902221504 | 80 | 24 | 0.0 | 0.0 | 0.04 | 0.37 | 0.37 | 94 | 1015.7 |
| 20260902221004 | 80 | 24 | 0.0 | 0.0 | 0.05 | 0.37 | 0.37 | 93 | 1015.6 |
| 20260902220504 | 80 | 28 | 0.0 | 0.0 | 0.05 | 0.37 | 0.37 | 93 | 1015.7 |
| 20260902220005 | 80 | 28 | 0.0 | 0.0 | 0.05 | 0.37 | 0.37 | 93 | 1015.7 |
| 20260902215504 | 80 | 28 | 0.0 | 0.0 | 0.05 | 0.37 | 0.37 | 93 | 1015.7 |
| 20260902215003 | 80 | 28 | 0.0 | 0.0 | 0.05 | 0.37 | 0.37 | 93 | 1015.7 |
| 20260902214503 | 80 | 123 | 0.0 | 0.0 | 0.01 | 0.33 | 0.33 | 93 | 1015.7 |
| 20260902214005 | 80 | 122 | 0.0 | 0.0 | 0.01 | 0.33 | 0.33 | 93 | 1015.8 |
| 20260902213506 | 80 | 123 | 0.0 | 0.0 | 0.02 | 0.33 | 0.33 | 93 | 1015.8 |
| 20260902213002 | 80 | 122 | 0.0 | 0.0 | 0.13 | 0.33 | 0.33 | 94 | 1015.7 |
| 20260902212502 | 80 | 123 | 0.0 | 0.0 | 0.28 | 0.33 | 0.33 | 94 | 1015.8 |
| 20260902212006 | 80 | 123 | 0.0 | 0.0 | 0.28 | 0.33 | 0.33 | 93 | 1015.8 |
| 20260902211501 | 80 | 122 | 0.0 | 0.0 | 0.28 | 0.33 | 0.33 | 93 | 1015.8 |
| 20260902211001 | 79 | 122 | 0.0 | 0.0 | 0.28 | 0.32 | 0.32 | 93 | 1015.9 |
| 20260902210502 | 79 | 123 | 0.0 | 0.0 | 0.28 | 0.32 | 0.32 | 93 | 1016.0 |
| 20260902210001 | 79 | 122 | 0.0 | 0.0 | 0.30 | 0.32 | 0.32 | 93 | 1016.0 |
| 20260902205500 | 79 | 123 | 0.0 | 0.0 | 0.30 | 0.32 | 0.32 | 93 | 1015.9 |
| 20260902205100 | 79 | 122 | 0.0 | 0.0 | 0.32 | 0.32 | 0.32 | 92 | 1016.0 |
| 20260902205002 | 79 | 123 | 0.0 | 0.0 | 0.32 | 0.32 | 0.32 | 92 | 1015.9 |
| 20260902204601 | 79 | 123 | 0.0 | 0.0 | 0.32 | 0.32 | 0.32 | 92 | 1015.9 |
| 20260902204101 | 79 | 123 | 0.0 | 3.0 | 0.32 | 0.32 | 0.32 | 92 | 1015.9 |
| 20260902203603 | 79 | 122 | 0.0 | 3.0 | 0.31 | 0.31 | 0.31 | 91 | 1016.0 |
| 20260902203107 | 80 | 130 | 0.0 | 2.0 | 0.20 | 0.20 | 0.20 | 91 | 1016.1 |
| 20260902202559 | 80 | 130 | 0.0 | 0.0 | 0.04 | 0.04 | 0.04 | 91 | 1016.1 |
| 20260902202059 | 80 | 130 | 0.0 | 1.0 | 0.04 | 0.04 | 0.04 | 91 | 1016.1 |
| 20260902201606 | 80 | 130 | 0.0 | 2.0 | 0.04 | 0.04 | 0.04 | 90 | 1016.1 |
| 20260902201103 | 80 | 130 | 0.0 | 2.0 | 0.04 | 0.04 | 0.04 | 89 | 1016.2 |
| 20260902200559 | 81 | 130 | 0.0 | 6.0 | 0.03 | 0.03 | 0.03 | 88 | 1016.1 |
| 20260902200134 | 82 | 117 | 2.0 | 7.0 | 0.02 | 0.02 | 0.02 | 86 | 1016.1 |
| 20260902195557 | 84 | 117 | 2.0 | 12.0 | 0.02 | 0.02 | 0.02 | 84 | 1016.0 |